createdAt,value
2019-03-22T00:00:39.243Z,7.78
2019-03-22T00:03:08.864Z,6.45
2019-03-22T00:05:38.360Z,8.03
2019-03-22T00:08:07.911Z,8.98
2019-03-22T00:10:37.515Z,9.38
2019-03-22T00:13:07.165Z,8.30
2019-03-22T00:15:36.798Z,9.00
2019-03-22T00:18:06.351Z,8.33
2019-03-22T00:20:35.859Z,10.18
2019-03-22T00:23:05.491Z,9.35
2019-03-22T00:25:34.984Z,7.17
2019-03-22T00:28:04.492Z,7.00
2019-03-22T00:30:34.018Z,8.48
2019-03-22T00:33:04.077Z,8.13
2019-03-22T00:35:33.572Z,8.28
2019-03-22T00:38:03.102Z,8.80
2019-03-22T00:40:32.668Z,8.15
2019-03-22T00:43:04.940Z,8.30
2019-03-22T00:45:34.415Z,6.62
2019-03-22T00:48:03.984Z,8.13
2019-03-22T00:50:33.494Z,7.78
2019-03-22T00:53:03.058Z,7.15
2019-03-22T00:55:32.634Z,7.87
2019-03-22T00:58:02.163Z,8.28
2019-03-22T01:00:31.671Z,8.55
2019-03-22T01:03:01.226Z,9.03
2019-03-22T01:05:30.836Z,9.03
2019-03-22T01:08:00.316Z,10.48
2019-03-22T01:10:29.839Z,7.37
2019-03-22T01:12:59.491Z,8.85
2019-03-22T01:15:29.039Z,8.53
2019-03-22T01:17:58.596Z,9.35
2019-03-22T01:20:28.116Z,8.98
2019-03-22T01:22:57.602Z,9.93
2019-03-22T01:25:27.086Z,8.78
2019-03-22T01:27:56.605Z,9.40
2019-03-22T01:30:26.110Z,8.20
2019-03-22T01:32:55.609Z,7.20
2019-03-22T01:35:25.184Z,7.45
2019-03-22T01:37:54.736Z,6.83
2019-03-22T01:40:24.211Z,6.33
2019-03-22T01:42:53.854Z,6.25
2019-03-22T01:45:23.486Z,7.70
2019-03-22T01:47:52.959Z,6.78
2019-03-22T01:50:22.468Z,7.03
2019-03-22T01:52:51.982Z,5.87
2019-03-22T01:55:21.538Z,5.60
2019-03-22T01:57:53.607Z,6.00
2019-03-22T02:00:22.425Z,6.17
2019-03-22T02:02:51.951Z,5.95
2019-03-22T02:05:21.557Z,5.30
2019-03-22T02:07:51.053Z,5.60
2019-03-22T02:10:20.612Z,5.67
2019-03-22T02:12:50.155Z,5.55
2019-03-22T02:15:19.695Z,5.67
2019-03-22T02:17:49.296Z,4.92
2019-03-22T02:20:19.675Z,5.80
2019-03-22T02:22:49.289Z,5.45
2019-03-22T02:25:18.834Z,5.78
2019-03-22T02:27:48.346Z,5.50
2019-03-22T02:30:19.251Z,6.42
2019-03-22T02:32:48.736Z,4.80
2019-03-22T02:35:28.479Z,5.60
2019-03-22T02:37:49.559Z,5.65
2019-03-22T02:40:19.189Z,6.22
2019-03-22T02:42:48.735Z,4.90
2019-03-22T02:45:18.379Z,5.53
2019-03-22T02:47:48.087Z,5.20
2019-03-22T02:50:19.776Z,5.90
2019-03-22T02:52:49.204Z,5.00
2019-03-22T02:55:18.778Z,5.50
2019-03-22T02:57:48.378Z,6.95
2019-03-22T03:00:19.049Z,5.87
2019-03-22T03:02:48.562Z,5.60
2019-03-22T03:05:18.149Z,5.47
2019-03-22T03:07:47.693Z,5.62
2019-03-22T03:10:18.115Z,4.97
2019-03-22T03:12:47.953Z,4.30
2019-03-22T03:15:20.882Z,5.10
2019-03-22T03:17:50.393Z,6.08
2019-03-22T03:20:20.533Z,5.10
2019-03-22T03:22:50.043Z,4.45
2019-03-22T03:25:19.678Z,5.40
2019-03-22T03:27:49.291Z,4.70
2019-03-22T03:30:21.517Z,5.10
2019-03-22T03:32:51.297Z,4.87
2019-03-22T03:35:20.957Z,5.20
2019-03-22T03:37:50.598Z,4.97
2019-03-22T03:40:20.380Z,5.92
2019-03-22T03:42:49.980Z,4.62
2019-03-22T03:45:32.664Z,4.75
2019-03-22T03:48:10.568Z,5.42
2019-03-22T03:50:40.189Z,5.05
2019-03-22T03:53:09.730Z,4.90
2019-03-22T03:55:39.239Z,5.40
2019-03-22T03:58:08.722Z,5.45
2019-03-22T04:00:38.275Z,6.10
2019-03-22T04:03:07.794Z,5.65
2019-03-22T04:05:37.279Z,5.40
2019-03-22T04:08:06.917Z,5.35
2019-03-22T04:10:36.468Z,5.53
2019-03-22T04:13:06.027Z,4.58
2019-03-22T04:15:35.529Z,5.42
2019-03-22T04:18:05.233Z,6.47
2019-03-22T04:20:34.746Z,5.33
2019-03-22T04:23:04.242Z,4.70
2019-03-22T04:25:33.756Z,5.95
2019-03-22T04:28:03.339Z,4.80
2019-03-22T04:30:32.853Z,5.65
2019-03-22T04:33:02.343Z,6.53
2019-03-22T04:35:31.825Z,4.83
2019-03-22T04:38:01.399Z,5.37
2019-03-22T04:40:31.483Z,5.60
2019-03-22T04:43:00.974Z,4.50
2019-03-22T04:45:32.165Z,5.55
2019-03-22T04:48:12.328Z,6.03
2019-03-22T04:50:44.193Z,5.78
2019-03-22T04:53:18.449Z,5.30
2019-03-22T04:55:52.582Z,6.12
2019-03-22T04:58:23.036Z,5.70
2019-03-22T05:00:54.505Z,4.37
2019-03-22T05:03:25.592Z,6.65
2019-03-22T05:05:58.179Z,5.50
2019-03-22T05:08:30.525Z,6.62
2019-03-22T05:11:02.280Z,5.47
2019-03-22T05:13:34.367Z,6.65
2019-03-22T05:16:05.265Z,5.90
2019-03-22T05:18:35.639Z,6.28
2019-03-22T05:21:06.779Z,6.08
2019-03-22T05:23:37.129Z,7.47
2019-03-22T05:26:07.089Z,7.58
2019-03-22T05:28:37.191Z,6.92
2019-03-22T05:31:26.399Z,7.10
2019-03-22T05:33:55.992Z,5.53
2019-03-22T05:36:26.624Z,6.17
2019-03-22T05:38:56.092Z,6.20
2019-03-22T05:41:25.606Z,6.08
2019-03-22T05:43:55.090Z,7.47
2019-03-22T05:46:24.578Z,5.28
2019-03-22T05:48:54.110Z,5.90
2019-03-22T05:51:23.553Z,5.45
2019-03-22T05:53:53.067Z,5.35
2019-03-22T05:56:22.567Z,5.10
2019-03-22T05:58:52.068Z,6.40
2019-03-22T06:01:21.575Z,5.50
2019-03-22T06:03:51.059Z,5.87
2019-03-22T06:06:20.558Z,5.92
2019-03-22T06:08:50.051Z,8.58
2019-03-22T06:11:19.529Z,6.87
2019-03-22T06:13:49.026Z,6.22
2019-03-22T06:16:18.527Z,5.75
2019-03-22T06:18:50.364Z,7.20
2019-03-22T06:21:19.252Z,6.58
2019-03-22T06:23:48.719Z,6.47
2019-03-22T06:26:18.228Z,5.65
2019-03-22T06:28:47.716Z,6.00
2019-03-22T06:31:17.223Z,6.42
2019-03-22T06:33:46.756Z,6.00
2019-03-22T06:36:16.275Z,6.03
2019-03-22T06:38:45.776Z,7.97
2019-03-22T06:41:15.347Z,5.70
2019-03-22T06:43:44.847Z,5.60
2019-03-22T06:46:14.341Z,6.65
2019-03-22T06:48:43.846Z,6.25
2019-03-22T06:51:13.341Z,6.28
2019-03-22T06:53:42.847Z,6.62
2019-03-22T06:56:12.376Z,6.20
2019-03-22T06:58:41.901Z,5.25
2019-03-22T07:01:11.396Z,5.78
2019-03-22T07:03:40.882Z,6.25
2019-03-22T07:06:10.380Z,5.08
2019-03-22T07:08:39.858Z,5.15
2019-03-22T07:11:09.363Z,6.25
2019-03-22T07:13:38.911Z,5.53
2019-03-22T07:16:08.508Z,5.62
2019-03-22T07:18:38.103Z,6.20
2019-03-22T07:21:07.630Z,6.37
2019-03-22T07:23:37.160Z,6.00
2019-03-22T07:26:06.651Z,5.97
2019-03-22T07:28:36.158Z,6.53
2019-03-22T07:31:05.643Z,6.10
2019-03-22T07:33:35.151Z,6.97
2019-03-22T07:36:04.769Z,5.83
2019-03-22T07:38:34.278Z,5.50
2019-03-22T07:41:03.791Z,5.37
2019-03-22T07:43:33.343Z,5.77
2019-03-22T07:46:03.060Z,5.10
2019-03-22T07:48:32.578Z,5.37
2019-03-22T07:51:02.167Z,5.13
2019-03-22T07:53:31.656Z,4.83
2019-03-22T07:56:01.191Z,5.73
2019-03-22T07:58:30.720Z,5.47
2019-03-22T08:01:00.214Z,5.07
2019-03-22T08:03:29.728Z,5.73
2019-03-22T08:05:59.255Z,4.33
2019-03-22T08:08:28.768Z,4.57
2019-03-22T08:10:58.350Z,5.83
2019-03-22T08:13:27.871Z,5.20
2019-03-22T08:15:57.749Z,5.63
2019-03-22T08:18:27.489Z,5.63
2019-03-22T08:20:57.048Z,5.57
2019-03-22T08:23:26.607Z,5.23
2019-03-22T08:25:56.175Z,5.33
2019-03-22T08:28:25.679Z,5.00
2019-03-22T08:30:55.276Z,5.97
2019-03-22T08:33:24.744Z,5.23
2019-03-22T08:35:54.231Z,5.77
2019-03-22T08:38:23.809Z,6.47
2019-03-22T08:40:53.305Z,5.60
2019-03-22T08:43:22.811Z,5.43
2019-03-22T08:45:52.316Z,5.80
2019-03-22T08:48:21.759Z,5.10
2019-03-22T08:50:51.268Z,5.10
2019-03-22T08:53:20.822Z,6.10
2019-03-22T08:55:50.328Z,5.17
2019-03-22T08:58:19.820Z,5.13
2019-03-22T09:00:57.301Z,4.67
2019-03-22T09:03:20.612Z,4.93
2019-03-22T09:05:50.120Z,6.40
2019-03-22T09:08:19.651Z,4.70
2019-03-22T09:10:49.119Z,4.97
2019-03-22T09:13:18.721Z,5.73
2019-03-22T09:15:48.253Z,6.90
2019-03-22T09:18:17.714Z,5.73
2019-03-22T09:20:47.251Z,6.67
2019-03-22T09:23:16.855Z,6.43
2019-03-22T09:25:46.382Z,5.30
2019-03-22T09:28:15.932Z,5.10
2019-03-22T09:30:45.490Z,5.00
2019-03-22T09:33:14.980Z,5.80
2019-03-22T09:35:44.520Z,5.90
2019-03-22T09:38:14.100Z,5.90
2019-03-22T09:40:43.610Z,4.97
2019-03-22T09:43:13.302Z,5.40
2019-03-22T09:45:43.142Z,5.93
2019-03-22T09:48:12.792Z,4.70
2019-03-22T09:50:42.474Z,5.77
2019-03-22T09:53:11.958Z,6.20
2019-03-22T09:55:41.542Z,5.40
2019-03-22T09:58:11.120Z,5.80
2019-03-22T10:00:40.745Z,6.00
2019-03-22T10:03:10.225Z,5.20
2019-03-22T10:05:39.756Z,5.60
2019-03-22T10:08:09.223Z,6.13
2019-03-22T10:10:38.759Z,5.50
2019-03-22T10:13:08.269Z,5.23
2019-03-22T10:15:37.737Z,5.37
2019-03-22T10:18:07.232Z,5.40
2019-03-22T10:20:36.732Z,5.40
2019-03-22T10:23:06.305Z,5.17
2019-03-22T10:25:35.781Z,5.73
2019-03-22T10:28:05.501Z,5.20
2019-03-22T10:30:34.988Z,5.00
2019-03-22T10:33:04.545Z,5.20
2019-03-22T10:35:34.071Z,4.90
2019-03-22T10:38:06.332Z,5.10
2019-03-22T10:40:34.787Z,4.83
2019-03-22T10:43:04.370Z,5.40
2019-03-22T10:45:33.981Z,4.07
2019-03-22T10:48:03.626Z,5.17
2019-03-22T10:50:33.176Z,5.10
2019-03-22T10:53:02.720Z,4.43
2019-03-22T10:55:35.347Z,4.50
2019-03-22T10:58:03.528Z,3.90
2019-03-22T11:00:33.073Z,4.80
2019-03-22T11:03:02.592Z,4.67
2019-03-22T11:05:32.159Z,5.47
2019-03-22T11:08:01.893Z,4.40
2019-03-22T11:10:31.617Z,5.23
2019-03-22T11:13:02.701Z,5.47
2019-03-22T11:15:32.229Z,4.63
2019-03-22T11:18:01.736Z,3.87
2019-03-22T11:20:31.296Z,4.70
2019-03-22T11:23:00.810Z,5.50
2019-03-22T11:25:30.318Z,4.00
2019-03-22T11:27:59.822Z,3.93
2019-03-22T11:30:29.338Z,4.33
2019-03-22T11:32:58.862Z,4.40
2019-03-22T11:35:28.351Z,3.83
2019-03-22T11:37:57.903Z,4.67
2019-03-22T11:40:27.408Z,5.60
2019-03-22T11:42:56.937Z,4.13
2019-03-22T11:45:26.564Z,3.60
2019-03-22T11:47:56.053Z,4.00
2019-03-22T11:50:25.643Z,3.77
2019-03-22T11:52:55.138Z,3.67
2019-03-22T11:55:24.720Z,3.37
2019-03-22T11:57:54.224Z,3.80
2019-03-22T12:00:26.298Z,4.00
2019-03-22T12:02:55.884Z,3.47
2019-03-22T12:05:25.667Z,3.90
2019-03-22T12:07:55.251Z,3.00
2019-03-22T12:10:24.773Z,4.07
2019-03-22T12:12:54.314Z,3.83
2019-03-22T12:15:27.326Z,4.10
2019-03-22T12:17:56.805Z,3.00
2019-03-22T12:20:26.363Z,3.03
2019-03-22T12:22:55.936Z,2.23
2019-03-22T12:25:28.602Z,2.97
2019-03-22T12:27:58.100Z,2.50
2019-03-22T12:30:27.600Z,3.43
2019-03-22T12:32:57.231Z,2.77
2019-03-22T12:35:26.896Z,3.17
2019-03-22T12:37:57.749Z,2.60
2019-03-22T12:40:27.426Z,3.70
2019-03-22T12:42:56.920Z,3.53
2019-03-22T12:45:29.635Z,3.13
2019-03-22T12:47:59.273Z,3.80
2019-03-22T12:50:29.158Z,3.30
2019-03-22T12:52:58.816Z,3.43
2019-03-22T12:55:28.569Z,3.10
2019-03-22T12:57:59.483Z,3.47
2019-03-22T13:00:29.390Z,2.67
2019-03-22T13:02:58.915Z,3.40
2019-03-22T13:05:28.594Z,2.50
2019-03-22T13:07:58.120Z,3.23
2019-03-22T13:10:29.412Z,2.57
2019-03-22T13:12:59.155Z,2.90
2019-03-22T13:15:28.720Z,3.37
2019-03-22T13:17:58.256Z,3.20
2019-03-22T13:20:27.744Z,3.47
2019-03-22T13:22:57.217Z,3.00
2019-03-22T13:25:26.723Z,3.23
2019-03-22T13:27:56.328Z,3.27
2019-03-22T13:30:35.321Z,3.27
2019-03-22T13:33:05.629Z,2.83
2019-03-22T13:35:35.206Z,3.10
2019-03-22T13:38:04.918Z,3.23
2019-03-22T13:40:34.401Z,2.70
2019-03-22T13:43:03.993Z,3.20
2019-03-22T13:45:33.840Z,2.77
2019-03-22T13:48:03.345Z,3.23
2019-03-22T13:50:32.835Z,2.80
2019-03-22T13:53:02.327Z,2.80
2019-03-22T13:55:31.918Z,2.70
2019-03-22T13:58:03.015Z,3.47
2019-03-22T14:00:32.514Z,2.80
2019-03-22T14:03:03.249Z,2.70
2019-03-22T14:05:33.001Z,3.53
2019-03-22T14:08:02.495Z,2.30
2019-03-22T14:10:34.229Z,2.93
2019-03-22T14:13:06.640Z,2.90
2019-03-22T14:15:36.131Z,2.80
2019-03-22T14:18:06.140Z,3.03
2019-03-22T14:20:35.733Z,2.90
2019-03-22T14:23:05.443Z,2.50
2019-03-22T14:25:34.941Z,2.53
2019-03-22T14:28:04.642Z,2.90
2019-03-22T14:30:34.140Z,2.80
2019-03-22T14:33:12.972Z,3.63
2019-03-22T14:35:35.137Z,2.40
2019-03-22T14:38:04.926Z,2.93
2019-03-22T14:40:34.828Z,2.33
2019-03-22T14:43:05.714Z,2.73
2019-03-22T14:45:35.403Z,3.27
2019-03-22T14:48:05.036Z,3.00
2019-03-22T14:50:34.541Z,2.63
2019-03-22T14:53:04.218Z,2.63
2019-03-22T14:55:33.735Z,2.20
2019-03-22T14:58:03.401Z,2.83
2019-03-22T15:00:33.201Z,2.03
2019-03-22T15:03:04.512Z,2.60
2019-03-22T15:05:34.031Z,2.20
2019-03-22T15:08:03.541Z,2.83
2019-03-22T15:10:33.107Z,2.90
2019-03-22T15:13:02.762Z,2.70
2019-03-22T15:15:33.940Z,2.93
2019-03-22T15:18:11.150Z,2.10
2019-03-22T15:20:58.759Z,3.90
2019-03-22T15:23:34.176Z,2.77
2019-03-22T15:26:18.820Z,2.47
2019-03-22T15:29:05.882Z,2.90
2019-03-22T15:31:41.088Z,3.40
2019-03-22T15:34:19.620Z,2.40
2019-03-22T15:36:53.261Z,2.93
2019-03-22T15:39:31.264Z,2.70
2019-03-22T15:42:00.892Z,2.90
2019-03-22T15:44:30.429Z,2.97
2019-03-22T15:46:59.976Z,3.17
2019-03-22T15:49:29.475Z,3.63
2019-03-22T15:51:59.166Z,3.30
2019-03-22T15:54:28.715Z,2.37
2019-03-22T15:56:58.291Z,2.70
2019-03-22T15:59:27.790Z,2.30
2019-03-22T16:01:57.310Z,3.27
2019-03-22T16:04:26.872Z,2.70
2019-03-22T16:06:56.448Z,3.87
2019-03-22T16:09:25.960Z,2.90
2019-03-22T16:11:55.425Z,2.93
2019-03-22T16:14:24.954Z,3.40
2019-03-22T16:16:54.465Z,3.80
2019-03-22T16:19:23.960Z,3.50
2019-03-22T16:21:53.530Z,3.13
2019-03-22T16:24:23.159Z,2.73
2019-03-22T16:26:52.634Z,3.47
2019-03-22T16:29:22.170Z,3.10
2019-03-22T16:31:51.720Z,3.43
2019-03-22T16:34:21.224Z,2.80
2019-03-22T16:36:50.725Z,3.03
2019-03-22T16:39:20.257Z,3.27
2019-03-22T16:41:49.774Z,4.40
2019-03-22T16:44:19.264Z,3.90
2019-03-22T16:46:48.759Z,3.10
2019-03-22T16:49:18.274Z,3.20
2019-03-22T16:51:47.789Z,2.80
2019-03-22T16:54:17.315Z,2.53
2019-03-22T16:56:46.945Z,2.60
2019-03-22T16:59:17.437Z,3.10
2019-03-22T17:01:46.953Z,3.00
2019-03-22T17:04:16.446Z,2.20
2019-03-22T17:06:46.031Z,3.17
2019-03-22T17:09:15.707Z,2.60
2019-03-22T17:11:45.424Z,2.87
2019-03-22T17:14:15.013Z,2.20
2019-03-22T17:16:44.494Z,2.77
2019-03-22T17:19:14.105Z,2.40
2019-03-22T17:21:43.659Z,2.97
2019-03-22T17:24:13.171Z,2.37
2019-03-22T17:26:42.699Z,2.87
2019-03-22T17:29:12.199Z,2.70
2019-03-22T17:31:41.695Z,2.57
2019-03-22T17:34:14.457Z,2.67
2019-03-22T17:36:42.459Z,2.37
2019-03-22T17:39:12.009Z,2.13
2019-03-22T17:41:41.537Z,2.50
2019-03-22T17:44:11.126Z,2.33
2019-03-22T17:46:40.637Z,2.90
2019-03-22T17:49:10.112Z,2.20
2019-03-22T17:51:39.702Z,2.63
2019-03-22T17:54:09.232Z,2.43
2019-03-22T17:56:38.769Z,3.00
2019-03-22T17:59:08.286Z,3.57
2019-03-22T18:01:37.807Z,4.03
2019-03-22T18:04:07.454Z,3.67
2019-03-22T18:06:36.970Z,4.10
2019-03-22T18:09:07.409Z,3.00
2019-03-22T18:11:36.909Z,3.50
2019-03-22T18:14:06.474Z,3.03
2019-03-22T18:16:35.987Z,3.60
2019-03-22T18:19:05.666Z,3.80
2019-03-22T18:21:35.184Z,4.10
2019-03-22T18:24:05.012Z,4.47
2019-03-22T18:26:34.559Z,4.13
2019-03-22T18:29:04.156Z,3.90
2019-03-22T18:31:33.673Z,4.07
2019-03-22T18:34:03.247Z,5.27
2019-03-22T18:36:32.778Z,3.80
2019-03-22T18:39:02.246Z,4.50
2019-03-22T18:41:31.791Z,4.80
2019-03-22T18:44:01.354Z,6.13
2019-03-22T18:46:31.004Z,6.20
2019-03-22T18:49:00.638Z,6.47
2019-03-22T18:51:30.198Z,7.40
2019-03-22T18:53:59.775Z,9.30
2019-03-22T18:56:29.311Z,8.93
2019-03-22T18:58:58.825Z,8.77
2019-03-22T19:01:28.310Z,27.10
2019-03-22T19:03:57.831Z,29.40
2019-03-22T19:06:28.433Z,40.57
2019-03-22T19:08:57.947Z,12.73
2019-03-22T19:11:27.561Z,6.40
2019-03-22T19:13:57.204Z,6.00
2019-03-22T19:16:26.700Z,6.47
2019-03-22T19:18:56.201Z,8.80
2019-03-22T19:21:25.791Z,8.20
2019-03-22T19:23:55.355Z,7.57
2019-03-22T19:26:24.881Z,6.93
2019-03-22T19:28:54.378Z,8.00
2019-03-22T19:31:23.870Z,7.87
2019-03-22T19:33:53.433Z,6.77
2019-03-22T19:36:22.996Z,6.20
2019-03-22T19:38:52.509Z,9.30
2019-03-22T19:41:22.003Z,10.27
2019-03-22T19:43:51.516Z,9.90
2019-03-22T19:46:21.048Z,9.70
2019-03-22T19:48:50.574Z,10.10
2019-03-22T19:51:20.073Z,8.60
2019-03-22T19:53:49.599Z,8.38
2019-03-22T19:56:19.145Z,7.47
2019-03-22T19:58:48.810Z,5.92
2019-03-22T20:01:18.312Z,5.53
2019-03-22T20:03:47.876Z,5.50
2019-03-22T20:06:17.385Z,4.63
2019-03-22T20:08:46.902Z,4.77
2019-03-22T20:11:16.429Z,4.65
2019-03-22T20:13:45.952Z,5.47
2019-03-22T20:16:15.479Z,3.90
2019-03-22T20:18:44.960Z,4.37
2019-03-22T20:21:14.470Z,4.40
2019-03-22T20:23:53.310Z,4.50
2019-03-22T20:26:15.308Z,5.50
2019-03-22T20:28:44.845Z,6.90
2019-03-22T20:31:14.357Z,5.30
2019-03-22T20:33:43.928Z,6.90
2019-03-22T20:36:13.446Z,5.90
2019-03-22T20:38:42.976Z,5.57
2019-03-22T20:41:12.480Z,6.20
2019-03-22T20:43:41.969Z,5.63
2019-03-22T20:46:11.505Z,4.80
2019-03-22T20:48:41.059Z,5.20
2019-03-22T20:51:10.607Z,4.63
2019-03-22T20:53:40.295Z,4.40
2019-03-22T20:56:09.792Z,4.37
2019-03-22T20:58:39.309Z,4.83
2019-03-22T21:01:08.843Z,4.53
2019-03-22T21:03:38.351Z,4.60
2019-03-22T21:06:07.865Z,5.37
2019-03-22T21:08:37.569Z,4.80
2019-03-22T21:11:07.051Z,4.33
2019-03-22T21:13:36.568Z,6.10
2019-03-22T21:16:06.202Z,5.60
2019-03-22T21:18:35.733Z,5.33
2019-03-22T21:21:05.320Z,5.03
2019-03-22T21:23:36.634Z,4.28
2019-03-22T21:26:06.128Z,4.80
2019-03-22T21:28:35.664Z,4.30
2019-03-22T21:31:05.136Z,4.30
2019-03-22T21:33:34.661Z,4.50
2019-03-22T21:36:04.215Z,4.70
2019-03-22T21:38:33.813Z,4.65
2019-03-22T21:41:04.290Z,5.20
2019-03-22T21:43:33.919Z,4.20
2019-03-22T21:46:03.519Z,4.65
2019-03-22T21:48:33.041Z,5.10
2019-03-22T21:51:02.592Z,4.20
2019-03-22T21:53:32.095Z,5.03
2019-03-22T21:56:01.600Z,4.60
2019-03-22T21:58:31.124Z,4.80
2019-03-22T22:01:00.641Z,4.17
2019-03-22T22:03:30.137Z,3.70
2019-03-22T22:05:59.656Z,4.65
2019-03-22T22:08:29.145Z,4.30
2019-03-22T22:11:00.014Z,4.47
2019-03-22T22:13:29.850Z,4.30
2019-03-22T22:15:59.344Z,4.90
2019-03-22T22:18:28.876Z,4.85
2019-03-22T22:20:58.395Z,4.00
2019-03-22T22:23:27.963Z,4.90
2019-03-22T22:25:57.593Z,5.20
2019-03-22T22:28:27.100Z,4.70
2019-03-22T22:30:56.641Z,4.22
2019-03-22T22:33:26.200Z,4.17
2019-03-22T22:35:58.941Z,5.15
2019-03-22T22:38:26.948Z,5.10
2019-03-22T22:40:56.474Z,4.55
2019-03-22T22:43:26.037Z,4.22
2019-03-22T22:45:55.557Z,4.97
2019-03-22T22:48:25.063Z,4.70
2019-03-22T22:50:54.663Z,5.17
2019-03-22T22:53:24.211Z,4.30
2019-03-22T22:55:53.713Z,5.00
2019-03-22T22:58:23.222Z,4.97
2019-03-22T23:00:52.917Z,5.15
2019-03-22T23:03:22.606Z,6.47
2019-03-22T23:05:52.131Z,5.37
2019-03-22T23:08:21.624Z,4.90
2019-03-22T23:10:51.196Z,5.70
2019-03-22T23:13:20.781Z,4.92
2019-03-22T23:15:50.295Z,6.08
2019-03-22T23:18:19.817Z,4.75
2019-03-22T23:20:49.348Z,5.60
2019-03-22T23:23:18.842Z,4.87
2019-03-22T23:25:48.388Z,5.30
2019-03-22T23:28:17.902Z,4.58
2019-03-22T23:30:47.413Z,5.30
2019-03-22T23:33:16.925Z,5.62
2019-03-22T23:35:46.414Z,5.30
2019-03-22T23:38:15.928Z,5.28
2019-03-22T23:40:45.429Z,5.12
2019-03-22T23:43:15.069Z,5.25
2019-03-22T23:45:45.842Z,5.33
2019-03-22T23:48:15.323Z,5.12
2019-03-22T23:50:44.911Z,4.53
2019-03-22T23:53:14.484Z,5.17
2019-03-22T23:55:43.954Z,5.20
2019-03-22T23:58:13.530Z,5.00
